Time;durP1;ratioP1;P1;durP2;ratioP2;P2;SDS_P1;SDS_P2;PMS_P1;PMS_P2;Temp;Humidity;BMP_temperature;BMP_pressure;BME280_temperature;BME280_humidity;BME280_pressure;Samples;Min_cycle;Max_cycle;Signal;HPM_P1;HPM_P2
2024/02/13 02:56:44;;;;;;;;;;;;;;;;;;;;;
2024/02/13 03:04:40;;;;;;;51.00;25.80;;;;;;;3.44;100.00;98471.77;267095;1301;22295;-87
2024/02/13 03:11:26;;;;;;;50.30;27.20;;;;;;;3.30;100.00;98482.86;271370;1279;22390;-87
2024/02/13 03:17:28;;;;;;;47.40;25.70;;;;;;;3.19;100.00;98486.09;271732;1279;23005;-87
2024/02/13 03:23:31;;;;;;;48.60;25.00;;;;;;;3.05;100.00;98490.51;271713;1279;22398;-87
2024/02/13 03:29:33;;;;;;;51.30;25.30;;;;;;;2.95;100.00;98500.59;271394;1270;22999;-86
2024/02/13 03:35:35;;;;;;;46.60;23.10;;;;;;;2.88;100.00;98508.70;270645;1270;22556;-87
2024/02/13 03:41:45;;;;;;;42.30;22.30;;;;;;;2.80;100.00;98514.31;271640;1270;22633;-86
2024/02/13 03:47:47;;;;;;;47.40;22.20;;;;;;;2.72;100.00;98523.86;272874;1270;22376;-87
2024/02/13 03:53:50;;;;;;;38.30;20.70;;;;;;;2.66;100.00;98525.19;272987;1270;23624;-87
2024/02/13 03:59:52;;;;;;;37.30;19.30;;;;;;;2.65;100.00;98532.39;273262;1268;23885;-88
2024/02/13 04:05:55;;;;;;;43.00;22.90;;;;;;;2.66;100.00;98539.91;273144;1269;22336;-87
2024/02/13 04:11:57;;;;;;;46.30;21.50;;;;;;;2.66;100.00;98547.88;273310;1269;22175;-88
2024/02/13 04:17:59;;;;;;;44.60;21.50;;;;;;;2.66;100.00;98551.80;272112;1269;23214;-91
2024/02/13 04:24:02;;;;;;;39.10;21.50;;;;;;;2.64;100.00;98552.45;269515;1269;22599;-87
2024/02/13 04:30:12;;;;;;;44.40;21.90;;;;;;;2.59;100.00;98556.36;270563;1269;24629;-87
2024/02/13 04:36:17;;;;;;;41.00;20.50;;;;;;;2.55;100.00;98556.98;272925;1266;23624;-87
2024/02/13 04:42:32;;;;;;;38.80;19.70;;;;;;;2.49;100.00;98564.27;273351;1269;22234;-87
2024/02/13 04:48:34;;;;;;;46.10;24.00;;;;;;;2.47;100.00;98566.34;273523;1269;22421;-87
2024/02/13 04:54:35;;;;;;;46.60;25.30;;;;;;;2.42;100.00;98571.27;273518;1269;23580;-87
2024/02/13 05:00:39;;;;;;;41.20;23.00;;;;;;;2.38;100.00;98581.60;273330;1269;22863;-88
2024/02/13 05:13:01;;;;;;;46.30;23.00;;;;;;;2.20;100.00;98599.85;273427;1269;23391;-87
2024/02/13 05:19:06;;;;;;;41.50;22.30;;;;;;;2.16;100.00;98608.94;273443;1268;23356;-87
2024/02/13 05:25:08;;;;;;;43.60;23.20;;;;;;;2.14;100.00;98619.38;271191;1260;22613;-87
2024/02/13 05:32:02;;;;;;;54.70;25.00;;;;;;;2.17;100.00;98634.55;271783;1269;22214;-86
2024/02/13 05:39:29;;;;;;;45.20;22.70;;;;;;;2.26;100.00;98649.98;272869;1281;22364;-87
2024/02/13 05:45:52;;;;;;;42.20;22.30;;;;;;;2.36;100.00;98655.55;272812;1272;22264;-87
2024/02/13 05:51:55;;;;;;;49.80;24.80;;;;;;;2.44;100.00;98663.65;272340;1272;23302;-87
2024/02/13 05:57:57;;;;;;;58.30;28.00;;;;;;;2.53;100.00;98677.27;272067;1272;22466;-87
2024/02/13 06:04:03;;;;;;;57.90;29.10;;;;;;;2.61;100.00;98687.92;271925;1272;22558;-87
2024/02/13 06:10:05;;;;;;;48.60;24.40;;;;;;;2.68;100.00;98698.61;272635;1269;22172;-87
2024/02/13 06:16:07;;;;;;;43.00;23.30;;;;;;;2.77;100.00;98698.54;272780;1268;23126;-88
2024/02/13 06:22:09;;;;;;;49.30;25.50;;;;;;;2.86;100.00;98702.69;272791;1269;22428;-87
2024/02/13 06:28:11;;;;;;;52.80;26.40;;;;;;;2.98;100.00;98715.31;272691;1269;23739;-86
2024/02/13 06:34:16;;;;;;;51.70;26.40;;;;;;;3.10;100.00;98724.09;272713;1268;22388;-86
2024/02/13 06:40:18;;;;;;;54.40;26.90;;;;;;;3.20;100.00;98734.20;272929;1269;23844;-87
2024/02/13 06:46:20;;;;;;;64.20;31.80;;;;;;;3.32;100.00;98743.86;271993;1267;22517;-87
2024/02/13 06:52:22;;;;;;;58.00;30.20;;;;;;;3.43;100.00;98754.86;272462;1267;22314;-87
2024/02/13 06:58:24;;;;;;;57.90;29.80;;;;;;;3.55;100.00;98753.97;273153;1267;22215;-87
2024/02/13 07:04:25;;;;;;;61.80;29.90;;;;;;;3.70;100.00;98758.59;273375;1267;22332;-87
2024/02/13 07:10:27;;;;;;;65.00;32.20;;;;;;;3.86;100.00;98770.12;273363;1267;23157;-87
2024/02/13 07:16:30;;;;;;;60.40;31.60;;;;;;;3.99;100.00;98777.90;273367;1267;22575;-86
2024/02/13 07:22:31;;;;;;;51.60;27.20;;;;;;;4.13;100.00;98788.82;273195;1267;22340;-86
2024/02/13 07:28:33;;;;;;;61.80;30.90;;;;;;;4.26;100.00;98803.80;273001;1267;22573;-86
2024/02/13 07:34:38;;;;;;;56.70;29.50;;;;;;;4.34;100.00;98812.57;273241;1267;22334;-87
2024/02/13 07:40:41;;;;;;;54.00;29.10;;;;;;;4.41;100.00;98817.84;273054;1267;23164;-87
2024/02/13 07:46:44;;;;;;;55.20;31.50;;;;;;;4.46;100.00;98826.98;273402;1267;23652;-88
2024/02/13 07:52:46;;;;;;;60.00;31.50;;;;;;;4.50;100.00;98838.98;273234;1267;23588;-87
2024/02/13 07:58:47;;;;;;;52.20;30.40;;;;;;;4.55;100.00;98845.34;273289;1267;23228;-87
2024/02/13 08:04:51;;;;;;;57.60;30.80;;;;;;;4.60;100.00;98847.05;273391;1267;22355;-87
2024/02/13 08:10:53;;;;;;;53.40;30.50;;;;;;;4.78;100.00;98847.70;273208;1267;22400;-87
2024/02/13 08:16:57;;;;;;;55.30;30.30;;;;;;;5.00;100.00;98852.62;273246;1267;23139;-86
2024/02/13 08:22:59;;;;;;;58.70;30.50;;;;;;;5.14;100.00;98855.23;273282;1267;22377;-87
2024/02/13 08:29:01;;;;;;;59.70;31.50;;;;;;;5.31;100.00;98870.38;273146;1267;22395;-87
2024/02/13 08:35:08;;;;;;;59.30;32.50;;;;;;;5.44;100.00;98879.23;273423;1269;22413;-87
2024/02/13 08:41:14;;;;;;;;;;;;;;;5.55;100.00;98889.18;272741;1267;23637;-88
2024/02/13 08:47:17;;;;;;;34.50;20.00;;;;;;;5.67;100.00;98894.23;273399;1267;22553;-87
2024/02/13 08:53:23;;;;;;;34.60;19.10;;;;;;;5.74;100.00;98900.88;273211;1269;23047;-87
2024/02/13 08:59:25;;;;;;;26.10;15.70;;;;;;;5.88;100.00;98903.33;271561;1267;23573;-87
2024/02/13 09:05:27;;;;;;;28.20;15.30;;;;;;;6.03;100.00;98912.85;272823;1267;23068;-87
2024/02/13 09:11:31;;;;;;;26.00;15.20;;;;;;;6.23;100.00;98916.65;273293;1267;22350;-89
2024/02/13 09:17:33;;;;;;;25.10;13.40;;;;;;;6.41;100.00;98914.58;273407;1267;22445;-90
2024/02/13 09:23:35;;;;;;;25.50;12.50;;;;;;;6.52;100.00;98917.23;273340;1269;23920;-88
2024/02/13 09:29:38;;;;;;;19.20;11.70;;;;;;;6.70;100.00;98923.00;273384;1267;22915;-88
2024/02/13 09:35:40;;;;;;;17.20;10.50;;;;;;;6.84;100.00;98926.06;273519;1267;22199;-88
2024/02/13 09:41:42;;;;;;;19.50;10.40;;;;;;;6.86;100.00;98931.93;273496;1267;23716;-89
2024/02/13 09:47:45;;;;;;;18.60;10.10;;;;;;;6.84;100.00;98937.58;273256;1267;22224;-89
2024/02/13 09:53:48;;;;;;;21.70;11.00;;;;;;;6.82;100.00;98941.42;273457;1267;22389;-88
2024/02/13 09:59:50;;;;;;;17.40;9.80;;;;;;;6.82;100.00;98942.80;272781;1269;22925;-88
2024/02/13 10:05:52;;;;;;;19.40;10.90;;;;;;;7.12;100.00;98944.55;273390;1269;22359;-88
2024/02/13 10:12:09;;;;;;;18.00;9.50;;;;;;;8.04;100.00;98945.66;273422;1267;22411;-87
2024/02/13 10:18:13;;;;;;;14.40;8.50;;;;;;;8.42;100.00;98950.09;271807;1267;22412;-88
2024/02/13 10:24:15;;;;;;;12.00;7.80;;;;;;;8.56;100.00;98956.05;273404;1267;22423;-88
2024/02/13 10:30:23;;;;;;;13.30;6.70;;;;;;;8.65;100.00;98956.30;271853;1268;22560;-86
2024/02/13 10:36:31;;;;;;;9.50;6.40;;;;;;;8.71;100.00;98957.64;272241;1269;22755;-88
2024/02/13 10:42:37;;;;;;;11.80;6.30;;;;;;;8.98;100.00;98947.73;272712;1267;22409;-87
2024/02/13 10:48:51;;;;;;;11.40;6.20;;;;;;;8.68;100.00;98952.83;273374;1269;23771;-88
2024/02/13 10:54:58;;;;;;;16.90;7.90;;;;;;;8.27;100.00;98953.36;273080;1267;22314;-87
2024/02/13 11:01:02;;;;;;;15.20;7.70;;;;;;;8.05;100.00;98955.88;273099;1267;22416;-88
2024/02/13 11:07:05;;;;;;;11.20;6.70;;;;;;;8.05;100.00;98954.01;273107;1266;22432;-88
2024/02/13 11:13:09;;;;;;;8.70;5.30;;;;;;;8.06;100.00;98955.42;273057;1267;22401;-88
2024/02/13 11:19:11;;;;;;;6.40;4.80;;;;;;;8.03;100.00;98947.42;273323;1267;22441;-88
2024/02/13 11:25:15;;;;;;;7.70;4.70;;;;;;;8.02;100.00;98952.24;273135;1270;22275;-88
2024/02/13 11:31:18;;;;;;;8.10;3.70;;;;;;;8.12;100.00;98958.11;272556;1267;23719;-89
2024/02/13 11:37:21;;;;;;;9.90;3.70;;;;;;;8.23;99.45;98958.60;271996;1267;22298;-88
2024/02/13 11:43:26;;;;;;;5.60;3.00;;;;;;;8.26;99.27;98964.74;273145;1267;23017;-88
2024/02/13 11:49:54;;;;;;;5.90;2.90;;;;;;;8.22;97.18;98967.14;273377;1267;22414;-89
2024/02/13 11:55:57;;;;;;;5.30;3.50;;;;;;;8.19;97.48;98964.73;273243;1267;22368;-88
2024/02/13 12:01:59;;;;;;;10.70;4.50;;;;;;;8.16;96.26;98975.02;273322;1257;22262;-88
2024/02/13 12:08:09;;;;;;;9.20;4.80;;;;;;;8.12;95.34;98973.33;273286;1267;23272;-88
2024/02/13 12:14:14;;;;;;;9.30;3.70;;;;;;;8.07;94.91;98973.05;273010;1267;22437;-88
2024/02/13 12:20:22;;;;;;;14.60;6.50;;;;;;;8.02;94.60;98975.77;273261;1267;23100;-88
2024/02/13 12:26:28;;;;;;;7.20;3.80;;;;;;;7.94;93.92;98979.42;273081;1267;22431;-88
2024/02/13 12:32:33;;;;;;;14.40;4.80;;;;;;;7.88;93.84;98982.32;273131;1267;23333;-88
2024/02/13 12:38:36;;;;;;;10.80;3.50;;;;;;;7.79;93.18;98990.86;273087;1267;22258;-88
2024/02/13 12:44:42;;;;;;;10.60;4.40;;;;;;;7.75;92.69;98992.94;273129;1267;22262;-89
2024/02/13 12:50:44;;;;;;;11.80;4.50;;;;;;;7.74;92.94;98995.19;273002;1267;23690;-88
2024/02/13 12:56:46;;;;;;;9.70;4.20;;;;;;;7.77;92.55;98995.16;273301;1267;22185;-89
2024/02/13 13:02:49;;;;;;;9.60;3.60;;;;;;;7.91;91.60;98995.39;273382;1267;23578;-87
2024/02/13 13:09:19;;;;;;;7.30;3.30;;;;;;;8.02;91.26;98996.16;272019;1267;23482;-89
2024/02/13 13:15:40;;;;;;;7.90;3.40;;;;;;;7.99;91.77;99000.61;271894;1267;22519;-88
2024/02/13 13:21:42;;;;;;;12.40;2.90;;;;;;;7.91;91.97;99006.67;271575;1267;22363;-87
2024/02/13 13:27:46;;;;;;;10.30;3.40;;;;;;;7.80;90.76;99024.58;273279;1267;22494;-88
2024/02/13 13:33:48;;;;;;;6.80;3.70;;;;;;;7.69;89.18;99038.27;273086;1267;22219;-89
2024/02/13 13:39:50;;;;;;;7.60;3.80;;;;;;;7.64;88.69;99048.88;273172;1267;24400;-88
2024/02/13 13:45:56;;;;;;;4.90;2.60;;;;;;;7.57;87.46;99056.89;273283;1267;22374;-89
2024/02/13 13:51:58;;;;;;;7.50;3.50;;;;;;;7.48;87.31;99066.02;273281;1267;23266;-88
2024/02/13 13:58:00;;;;;;;8.90;4.00;;;;;;;7.37;87.84;99075.01;273335;1267;22371;-87
2024/02/13 14:04:03;;;;;;;10.80;5.80;;;;;;;7.32;88.61;99074.71;273250;1267;22559;-88
2024/02/13 14:10:12;;;;;;;13.60;7.40;;;;;;;7.28;88.98;99076.63;273356;1263;22350;-88
2024/02/13 14:16:15;;;;;;;14.10;6.10;;;;;;;7.23;89.36;99090.75;273406;1267;22282;-88
2024/02/13 14:22:17;;;;;;;13.10;7.10;;;;;;;7.15;89.18;99097.79;273272;1267;23253;-88
2024/02/13 14:28:19;;;;;;;16.30;8.10;;;;;;;7.06;89.69;99106.70;273011;1266;22953;-88
2024/02/13 14:34:24;;;;;;;17.90;10.00;;;;;;;6.95;90.57;99121.27;272888;1267;22520;-87
2024/02/13 14:40:31;;;;;;;12.90;7.40;;;;;;;6.73;91.91;99134.58;273487;1267;22278;-87
2024/02/13 14:46:33;;;;;;;12.20;7.10;;;;;;;6.45;92.76;99139.65;272646;1267;462096;-87
2024/02/13 14:52:35;;;;;;;14.20;8.20;;;;;;;6.24;93.78;99142.70;273243;1267;22315;-88
2024/02/13 14:58:37;;;;;;;18.20;10.00;;;;;;;6.12;94.29;99146.19;273413;1263;22260;-87
2024/02/13 15:04:39;;;;;;;19.80;10.80;;;;;;;6.04;95.05;99154.42;273391;1267;22915;-87
2024/02/13 15:10:43;;;;;;;17.60;9.30;;;;;;;5.97;95.16;99158.15;273220;1260;22661;-88
2024/02/13 15:16:47;;;;;;;16.80;9.70;;;;;;;5.90;95.19;99166.23;273331;1264;23044;-86
2024/02/13 15:31:07;;;;;;;16.20;8.60;;;;;;;5.79;96.30;99184.17;273584;1268;22356;-88
2024/02/13 15:50:29;;;;;;;19.20;10.40;;;;;;;5.61;97.61;99224.29;273153;1267;22246;-86
2024/02/13 15:57:12;;;;;;;15.60;10.40;;;;;;;5.51;97.93;99230.54;273134;1267;22538;-87
2024/02/13 16:04:18;;;;;;;19.70;11.30;;;;;;;5.37;98.68;99233.02;271741;1279;23256;-87
2024/02/13 16:10:20;;;;;;;19.60;12.20;;;;;;;5.28;99.17;99241.14;269748;1280;23393;-87
2024/02/13 16:16:22;;;;;;;22.60;12.30;;;;;;;5.21;99.54;99256.92;271470;1273;22348;-87
2024/02/13 16:22:24;;;;;;;25.70;12.50;;;;;;;5.14;99.89;99266.52;272400;1273;22555;-87
2024/02/13 16:28:25;;;;;;;22.10;12.30;;;;;;;5.11;100.00;99275.11;272153;1273;22565;-87
2024/02/13 16:34:29;;;;;;;23.30;12.70;;;;;;;5.09;100.00;99289.05;273285;1259;22236;-85
2024/02/13 16:40:50;;;;;;;24.80;13.40;;;;;;;5.03;100.00;99295.39;272257;1267;22349;-87
2024/02/13 16:46:55;;;;;;;27.30;12.90;;;;;;;4.93;100.00;99300.54;272813;1267;22256;-86
2024/02/13 16:53:23;;;;;;;24.30;11.70;;;;;;;4.82;100.00;99315.23;273979;1267;22103;-87
2024/02/13 17:07:09;;;;;;;32.40;14.60;;;;;;;4.55;100.00;99336.27;273746;1267;23159;-87
2024/02/13 17:13:50;;;;;;;26.80;14.50;;;;;;;4.43;100.00;99352.41;273740;1267;22554;-87
2024/02/13 17:27:36;;;;;;;32.00;16.00;;;;;;;4.39;100.00;99364.65;273692;1267;22518;-89
2024/02/13 17:33:38;;;;;;;32.20;16.60;;;;;;;4.40;100.00;99368.80;273462;1267;22207;-86
2024/02/13 17:39:40;;;;;;;35.30;18.30;;;;;;;4.40;100.00;99371.44;273295;1267;24086;-86
2024/02/13 17:46:09;;;;;;;36.30;19.90;;;;;;;4.42;100.00;99377.94;273594;1267;22422;-87
2024/02/13 17:52:36;;;;;;;31.80;17.00;;;;;;;4.42;100.00;99379.88;272479;1267;22585;-86
2024/02/13 17:58:38;;;;;;;39.40;19.50;;;;;;;4.41;100.00;99378.13;273151;1269;22427;-87
2024/02/13 18:04:40;;;;;;;32.00;16.80;;;;;;;4.41;100.00;99384.09;272961;1267;22185;-86
2024/02/13 18:10:42;;;;;;;32.50;16.50;;;;;;;4.41;100.00;99385.10;271803;1269;22322;-87
2024/02/13 18:16:43;;;;;;;34.90;17.50;;;;;;;4.39;100.00;99386.34;273564;1267;23445;-88
2024/02/13 18:22:45;;;;;;;35.70;18.10;;;;;;;4.37;100.00;99390.11;270586;1267;22525;-86
2024/02/13 18:28:47;;;;;;;30.20;16.10;;;;;;;4.37;100.00;99397.15;270832;1263;22554;-86
2024/02/13 18:34:50;;;;;;;33.10;17.10;;;;;;;4.34;100.00;99399.14;272991;1267;22313;-86
2024/02/13 18:41:20;;;;;;;33.00;17.70;;;;;;;4.30;100.00;99401.70;271804;1267;22532;-86
2024/02/13 18:48:13;;;;;;;36.30;18.90;;;;;;;4.26;100.00;99404.84;271476;1268;22385;-87
2024/02/13 18:55:09;;;;;;;44.40;19.70;;;;;;;4.24;100.00;99407.08;273177;1267;22380;-86
2024/02/13 19:01:31;;;;;;;33.70;17.50;;;;;;;4.21;100.00;99410.97;271674;1267;22296;-86
2024/02/13 19:07:52;;;;;;;38.00;20.10;;;;;;;4.19;100.00;99416.08;272421;1267;22436;-87
2024/02/13 19:13:54;;;;;;;38.20;19.30;;;;;;;4.18;100.00;99422.52;273723;1267;22279;-88
2024/02/13 19:20:46;;;;;;;32.60;18.00;;;;;;;4.18;100.00;99428.71;273892;1266;22199;-87
2024/02/13 19:26:49;;;;;;;37.90;20.60;;;;;;;4.17;100.00;99435.96;273840;1267;22377;-86
2024/02/13 19:33:12;;;;;;;33.40;20.90;;;;;;;4.17;100.00;99436.89;273697;1267;22386;-86
2024/02/13 19:39:39;;;;;;;40.50;21.70;;;;;;;4.19;100.00;99447.64;273651;1257;22984;-86
2024/02/13 19:46:11;;;;;;;43.40;21.10;;;;;;;4.21;100.00;99453.75;273587;1267;22993;-87
2024/02/13 20:00:14;;;;;;;44.70;20.30;;;;;;;4.20;100.00;99463.80;273872;1267;23054;-87
2024/02/13 20:13:59;;;;;;;32.60;18.70;;;;;;;4.19;100.00;99466.60;273879;1267;22419;-86
2024/02/13 20:20:26;;;;;;;38.60;18.80;;;;;;;4.15;100.00;99467.92;273841;1267;22190;-87
2024/02/13 20:26:46;;;;;;;40.80;19.00;;;;;;;4.14;100.00;99470.56;273865;1267;22989;-86
2024/02/13 20:32:50;;;;;;;36.50;19.10;;;;;;;4.13;100.00;99468.81;273903;1267;23596;-87
2024/02/13 20:38:52;;;;;;;33.60;17.50;;;;;;;4.10;100.00;99472.04;273832;1267;22372;-87
2024/02/13 20:52:51;;;;;;;31.70;15.30;;;;;;;4.06;100.00;99476.81;273597;1267;23587;-89
2024/02/13 20:59:43;;;;;;;29.60;15.50;;;;;;;4.02;100.00;99477.17;273786;1263;22435;-85
2024/02/13 21:06:41;;;;;;;29.00;14.60;;;;;;;3.98;100.00;99476.70;273819;1267;22394;-87
2024/02/13 21:12:43;;;;;;;33.90;15.60;;;;;;;3.95;100.00;99478.23;273587;1267;22398;-86
2024/02/13 21:18:45;;;;;;;28.20;14.50;;;;;;;3.88;100.00;99487.86;273479;1267;22387;-86
2024/02/13 21:25:38;;;;;;;26.70;13.70;;;;;;;3.80;100.00;99490.12;273764;1267;22220;-86
2024/02/13 21:32:34;;;;;;;29.30;13.50;;;;;;;3.68;100.00;99494.44;273755;1270;22432;-87
2024/02/13 21:39:07;;;;;;;27.60;14.40;;;;;;;3.54;100.00;99494.56;272059;1269;25310;-86
2024/02/13 21:45:09;;;;;;;28.20;16.30;;;;;;;3.37;100.00;99501.95;271077;1267;22354;-86
2024/02/13 21:51:11;;;;;;;28.10;15.00;;;;;;;3.22;100.00;99507.07;271405;1267;22561;-86
2024/02/13 21:57:38;;;;;;;35.90;17.70;;;;;;;3.15;100.00;99512.48;271653;1267;22209;-85
2024/02/13 22:11:41;;;;;;;29.30;14.70;;;;;;;2.96;100.00;99514.52;273816;1267;22311;-86
2024/02/13 22:25:30;;;;;;;32.10;16.90;;;;;;;2.89;100.00;99523.70;273687;1268;23515;-86
2024/02/13 22:31:43;;;;;;;33.90;16.30;;;;;;;2.87;100.00;99527.15;273654;1269;22226;-86
2024/02/13 22:52:52;;;;;;;39.00;18.20;;;;;;;3.02;100.00;99536.52;273892;1267;23521;-88
2024/02/13 22:58:55;;;;;;;41.00;18.00;;;;;;;3.05;100.00;99543.22;273763;1267;22246;-86
2024/02/13 23:05:04;;;;;;;38.80;17.80;;;;;;;3.05;100.00;99549.05;273805;1267;22537;-87
2024/02/13 23:12:02;;;;;;;37.60;19.90;;;;;;;3.06;100.00;99554.27;273257;1268;22275;-86
2024/02/13 23:18:23;;;;;;;49.80;24.50;;;;;;;3.03;100.00;99553.49;270341;1275;22611;-85
2024/02/13 23:25:14;;;;;;;54.60;26.20;;;;;;;3.01;100.00;99562.42;272294;1275;22631;-86
2024/02/13 23:32:44;;;;;;;52.60;27.30;;;;;;;2.96;100.00;99559.87;271590;1281;22767;-86
2024/02/13 23:39:21;;;;;;;50.30;25.10;;;;;;;2.93;100.00;99555.99;272382;1275;22067;-87
2024/02/13 23:45:48;;;;;;;;;;;;;;;2.84;100.00;99560.73;272425;1275;22515;-85
2024/02/13 23:51:50;;;;;;;61.60;30.60;;;;;;;2.80;100.00;99565.02;272585;1275;22988;-86
2024/02/13 23:57:52;;;;;;;61.80;29.70;;;;;;;2.79;100.00;99564.70;272545;1260;23084;-86
